Time;durP1;ratioP1;P1;durP2;ratioP2;P2;SDS_P1;SDS_P2;PMS_P1;PMS_P2;Temp;Humidity;BMP_temperature;BMP_pressure;BME280_temperature;BME280_humidity;BME280_pressure;Samples;Min_cycle;Max_cycle;Signal;HPM_P1;HPM_P2
2023/08/18 00:01:54;;;;;;;2.05;1.10;;;17.50;99.90;;;;;;4166131;28;20047;-79
2023/08/18 00:03:58;;;;;;;2.67;1.40;;;17.50;99.90;;;;;;4164426;28;20519;-80
2023/08/18 00:05:58;;;;;;;1.98;1.05;;;17.40;99.90;;;;;;4166057;28;20511;-79
2023/08/18 00:07:59;;;;;;;1.90;1.20;;;17.30;99.90;;;;;;4166075;28;20057;-80
2023/08/18 00:10:02;;;;;;;4.20;1.23;;;17.30;99.90;;;;;;4164181;28;20046;-79
2023/08/18 00:12:05;;;;;;;7.30;1.42;;;17.30;99.90;;;;;;4164021;28;20057;-80
2023/08/18 00:14:05;;;;;;;2.42;1.15;;;17.20;99.90;;;;;;4165870;28;20516;-80
2023/08/18 00:16:06;;;;;;;2.38;1.30;;;17.20;99.90;;;;;;4164602;28;20045;-80
2023/08/18 00:18:08;;;;;;;7.18;1.60;;;17.10;99.90;;;;;;4165693;28;20045;-79
2023/08/18 00:20:09;;;;;;;4.85;1.60;;;17.10;99.90;;;;;;4165702;28;20486;-80
2023/08/18 00:22:10;;;;;;;1.80;1.50;;;17.10;99.90;;;;;;4165632;28;20486;-79
2023/08/18 00:24:11;;;;;;;3.97;1.75;;;17.00;99.90;;;;;;4165698;28;20084;-80
2023/08/18 00:26:12;;;;;;;3.25;1.70;;;17.00;99.90;;;;;;4165359;28;20171;-79
2023/08/18 00:28:13;;;;;;;2.13;1.48;;;17.00;99.90;;;;;;4164504;28;20041;-79
2023/08/18 00:30:14;;;;;;;2.63;1.40;;;17.00;99.90;;;;;;4165318;28;20048;-79
2023/08/18 00:32:15;;;;;;;3.50;1.60;;;17.00;99.90;;;;;;4165121;28;20421;-79
2023/08/18 00:34:16;;;;;;;2.63;1.70;;;17.30;99.90;;;;;;4164918;28;20045;-79
2023/08/18 00:36:17;;;;;;;2.65;1.92;;;16.90;99.90;;;;;;4165284;28;20041;-80
2023/08/18 00:38:17;;;;;;;4.55;1.88;;;16.90;99.90;;;;;;4164047;28;20056;-80
2023/08/18 00:40:18;;;;;;;3.17;1.73;;;16.90;99.90;;;;;;4163974;28;20461;-79
2023/08/18 00:42:19;;;;;;;1.65;1.30;;;16.90;99.90;;;;;;4164020;28;20196;-80
2023/08/18 00:44:20;;;;;;;2.65;1.73;;;16.90;99.90;;;;;;4147534;28;20442;-79
2023/08/18 00:46:21;;;;;;;1.70;1.40;;;16.90;99.90;;;;;;4163791;28;20375;-80
2023/08/18 00:48:22;;;;;;;2.55;1.40;;;16.90;99.90;;;;;;4165473;28;20053;-79
2023/08/18 00:50:24;;;;;;;3.92;1.60;;;16.90;99.90;;;;;;4164421;28;20072;-80
2023/08/18 00:52:29;;;;;;;4.13;2.10;;;16.90;99.90;;;;;;4164365;28;20129;-79
2023/08/18 00:54:31;;;;;;;3.83;1.48;;;16.60;99.90;;;;;;4165195;28;20091;-80
2023/08/18 00:56:32;;;;;;;3.17;1.55;;;16.90;99.90;;;;;;4165923;28;20717;-79
2023/08/18 00:58:36;;;;;;;1.58;1.30;;;16.90;99.90;;;;;;4169695;28;20076;-79
2023/08/18 01:00:36;;;;;;;2.97;1.70;;;16.90;99.90;;;;;;4170474;28;20103;-79
2023/08/18 01:02:37;;;;;;;2.65;1.73;;;16.90;99.90;;;;;;4166610;28;20055;-80
2023/08/18 01:04:38;;;;;;;4.63;1.40;;;17.00;99.90;;;;;;4165217;28;20045;-79
2023/08/18 01:06:40;;;;;;;5.03;1.70;;;16.90;99.90;;;;;;4163840;28;20041;-80
2023/08/18 01:08:41;;;;;;;1.90;1.70;;;17.00;99.90;;;;;;4164803;28;20072;-79
2023/08/18 01:11:02;;;;;;;3.65;1.70;;;17.00;99.90;;;;;;4163336;28;20041;-80
2023/08/18 01:13:20;;;;;;;3.20;2.00;;;17.00;99.90;;;;;;4164094;28;20084;-80
2023/08/18 01:15:35;;;;;;;2.92;1.85;;;16.50;99.90;;;;;;4165122;28;20050;-80
2023/08/18 01:17:44;;;;;;;4.32;2.00;;;17.00;99.90;;;;;;4165187;28;20045;-79
2023/08/18 01:19:46;;;;;;;3.03;2.10;;;17.00;99.90;;;;;;4165112;28;20046;-80
2023/08/18 01:21:51;;;;;;;4.57;1.60;;;17.00;99.90;;;;;;4166171;28;20045;-80
2023/08/18 01:23:52;;;;;;;1.88;1.75;;;17.00;99.90;;;;;;4165225;28;20132;-81
2023/08/18 01:25:53;;;;;;;2.90;1.88;;;17.10;99.90;;;;;;4164987;28;20053;-79
2023/08/18 01:27:55;;;;;;;4.15;1.73;;;17.10;99.90;;;;;;4163394;28;20073;-79
2023/08/18 01:29:56;;;;;;;3.80;1.63;;;17.10;99.90;;;;;;4167176;28;20052;-79
2023/08/18 01:32:01;;;;;;;4.75;2.17;;;17.10;99.90;;;;;;4170577;28;20268;-80
2023/08/18 01:34:09;;;;;;;4.43;2.10;;;17.10;99.90;;;;;;4165356;28;20409;-80
2023/08/18 01:36:18;;;;;;;3.85;1.60;;;17.10;99.90;;;;;;4164556;28;20037;-80
2023/08/18 01:38:22;;;;;;;3.35;2.03;;;17.20;99.90;;;;;;4164678;28;20076;-80
2023/08/18 01:40:28;;;;;;;4.53;1.77;;;17.10;99.90;;;;;;4164552;28;20044;-79
2023/08/18 01:42:29;;;;;;;3.42;1.90;;;17.20;99.90;;;;;;4163484;28;20502;-80
2023/08/18 01:44:29;;;;;;;4.22;1.70;;;17.20;99.90;;;;;;4130031;28;20392;-80
2023/08/18 01:46:31;;;;;;;2.30;1.80;;;17.20;99.90;;;;;;4163752;28;20132;-80
2023/08/18 01:48:32;;;;;;;6.15;2.38;;;17.20;99.90;;;;;;4164571;28;20045;-80
2023/08/18 01:50:33;;;;;;;2.67;1.88;;;17.20;99.90;;;;;;4164497;28;20056;-80
2023/08/18 01:52:34;;;;;;;4.90;1.60;;;17.20;99.90;;;;;;4164559;28;20053;-80
2023/08/18 01:54:34;;;;;;;5.07;2.20;;;17.20;99.90;;;;;;4162643;28;20046;-80
2023/08/18 01:56:35;;;;;;;2.28;1.52;;;17.20;99.90;;;;;;4164232;28;20119;-81
2023/08/18 01:58:36;;;;;;;3.30;1.67;;;17.20;99.90;;;;;;4164322;28;20506;-81
2023/08/18 02:00:37;;;;;;;3.70;1.67;;;16.90;99.90;;;;;;4164547;28;20124;-81
2023/08/18 02:02:38;;;;;;;2.90;1.90;;;17.20;99.90;;;;;;4161537;28;20049;-81
2023/08/18 02:04:39;;;;;;;2.10;1.63;;;17.10;99.90;;;;;;4162785;28;20502;-80
2023/08/18 02:06:40;;;;;;;5.72;1.73;;;17.20;99.90;;;;;;4163994;28;20053;-81
2023/08/18 02:08:41;;;;;;;2.70;1.77;;;17.20;99.90;;;;;;4164564;28;20053;-81
2023/08/18 02:10:41;;;;;;;2.75;1.80;;;17.20;99.90;;;;;;4164441;28;20047;-81
2023/08/18 02:12:42;;;;;;;4.00;3.00;;;17.20;99.90;;;;;;4164290;28;20148;-81
2023/08/18 02:14:43;;;;;;;3.38;2.00;;;17.10;99.90;;;;;;4163943;28;20053;-81
2023/08/18 02:16:44;;;;;;;3.00;1.77;;;17.10;99.90;;;;;;4164189;28;20128;-80
2023/08/18 02:18:45;;;;;;;4.10;2.10;;;17.10;99.90;;;;;;4164264;28;20060;-81
2023/08/18 02:20:58;;;;;;;5.40;2.20;;;17.10;99.90;;;;;;4162206;28;20061;-81
2023/08/18 02:22:58;;;;;;;2.75;1.90;;;17.00;99.90;;;;;;4164164;28;20045;-81
2023/08/18 02:24:59;;;;;;;2.47;1.70;;;17.00;99.90;;;;;;4164283;28;20071;-81
2023/08/18 02:27:00;;;;;;;5.25;2.33;;;17.00;99.90;;;;;;4163956;28;20124;-80
2023/08/18 02:29:01;;;;;;;6.60;2.38;;;17.00;99.90;;;;;;4164192;28;20041;-80
2023/08/18 02:31:03;;;;;;;5.30;2.08;;;17.00;99.90;;;;;;4163965;28;20052;-81
2023/08/18 02:33:04;;;;;;;4.38;2.10;;;17.00;99.90;;;;;;4164231;28;20091;-81
2023/08/18 02:35:05;;;;;;;2.53;1.90;;;17.00;99.90;;;;;;4165945;28;20045;-81
2023/08/18 02:37:06;;;;;;;3.30;1.88;;;16.50;99.90;;;;;;4166423;28;20118;-81
2023/08/18 02:39:07;;;;;;;3.38;2.40;;;17.00;99.90;;;;;;4165297;28;20073;-81
2023/08/18 02:41:08;;;;;;;2.95;1.80;;;17.00;99.90;;;;;;4166996;28;20474;-80
2023/08/18 02:43:08;;;;;;;3.45;1.88;;;17.00;99.90;;;;;;4165884;28;20053;-81
2023/08/18 02:45:09;;;;;;;4.75;2.22;;;17.00;99.90;;;;;;4167477;28;20049;-81
2023/08/18 02:47:10;;;;;;;2.88;1.88;;;17.00;99.90;;;;;;4165804;28;20073;-80
2023/08/18 02:49:11;;;;;;;5.38;2.10;;;17.00;99.90;;;;;;4166887;28;20041;-81
2023/08/18 02:51:12;;;;;;;2.90;1.70;;;17.00;99.90;;;;;;4166633;28;20351;-80
2023/08/18 02:53:13;;;;;;;4.50;2.50;;;17.00;99.90;;;;;;4167207;28;20045;-81
2023/08/18 02:55:14;;;;;;;5.00;2.13;;;16.50;99.90;;;;;;4166559;28;20142;-81
2023/08/18 02:57:14;;;;;;;4.30;2.20;;;17.00;99.90;;;;;;4165438;28;20038;-80
2023/08/18 02:59:17;;;;;;;3.58;2.33;;;17.10;99.90;;;;;;4166720;28;20053;-81
2023/08/18 03:01:18;;;;;;;3.95;2.30;;;17.10;99.90;;;;;;4166955;28;20052;-81
2023/08/18 03:03:19;;;;;;;6.88;2.35;;;17.10;99.90;;;;;;4166952;28;20367;-81
2023/08/18 03:05:19;;;;;;;3.72;2.03;;;17.10;99.90;;;;;;4166594;28;20055;-81
2023/08/18 03:07:20;;;;;;;5.30;2.15;;;17.00;99.90;;;;;;4165654;28;20107;-81
2023/08/18 03:09:21;;;;;;;3.30;2.08;;;17.60;99.90;;;;;;4165640;28;20088;-81
2023/08/18 03:11:23;;;;;;;5.13;2.10;;;17.10;99.90;;;;;;4165602;28;20057;-81
2023/08/18 03:13:24;;;;;;;3.45;2.13;;;17.10;99.90;;;;;;4166876;28;20128;-81
2023/08/18 03:15:25;;;;;;;2.38;1.83;;;17.10;99.90;;;;;;4166075;28;20124;-81
2023/08/18 03:17:26;;;;;;;3.63;2.50;;;17.10;99.90;;;;;;4166093;28;20033;-81
2023/08/18 03:19:27;;;;;;;3.80;2.72;;;17.00;99.90;;;;;;4166679;28;20096;-81
2023/08/18 03:21:28;;;;;;;3.80;2.17;;;17.10;99.90;;;;;;4166708;28;20049;-80
2023/08/18 03:23:29;;;;;;;3.47;2.20;;;17.10;99.90;;;;;;4166639;28;20099;-81
2023/08/18 03:25:30;;;;;;;3.08;2.05;;;17.10;99.90;;;;;;4166608;28;20585;-81
2023/08/18 03:27:30;;;;;;;2.83;2.22;;;17.20;99.90;;;;;;4165402;28;20041;-81
2023/08/18 03:29:31;;;;;;;4.43;2.05;;;17.10;99.90;;;;;;4165688;28;20100;-80
2023/08/18 03:31:32;;;;;;;3.38;1.90;;;17.10;99.90;;;;;;4164757;28;20068;-81
2023/08/18 03:33:34;;;;;;;3.90;2.10;;;17.20;99.90;;;;;;4165729;28;20134;-81
2023/08/18 03:35:38;;;;;;;4.03;2.42;;;17.20;99.90;;;;;;4166471;28;20124;-80
2023/08/18 03:37:39;;;;;;;3.58;2.22;;;17.10;99.90;;;;;;4166410;28;20077;-81
2023/08/18 03:39:39;;;;;;;2.92;2.42;;;17.10;99.90;;;;;;4165028;28;20088;-81
2023/08/18 03:41:40;;;;;;;6.70;2.53;;;17.10;99.90;;;;;;4166000;28;20048;-81
2023/08/18 03:43:41;;;;;;;4.63;2.53;;;17.20;99.90;;;;;;4166320;28;20045;-81
2023/08/18 03:45:42;;;;;;;7.75;3.40;;;17.10;99.90;;;;;;4166028;28;20120;-81
2023/08/18 03:47:42;;;;;;;4.47;2.85;;;17.10;99.90;;;;;;4166107;28;20045;-81
2023/08/18 03:49:43;;;;;;;3.90;2.53;;;17.10;99.90;;;;;;4165573;28;20116;-81
2023/08/18 03:51:44;;;;;;;4.68;3.05;;;17.10;99.90;;;;;;4165833;28;20051;-81
2023/08/18 03:53:45;;;;;;;4.63;2.70;;;17.10;99.90;;;;;;4166059;28;20038;-81
2023/08/18 03:55:53;;;;;;;5.80;2.95;;;17.10;99.90;;;;;;4165985;28;20050;-80
2023/08/18 03:57:53;;;;;;;9.75;3.03;;;17.10;99.90;;;;;;4164684;28;20896;-81
2023/08/18 03:59:55;;;;;;;6.05;3.10;;;17.10;99.90;;;;;;4166187;28;20033;-81
2023/08/18 04:01:56;;;;;;;5.40;3.03;;;17.10;99.90;;;;;;4165935;28;20505;-80
2023/08/18 04:03:58;;;;;;;4.97;2.80;;;17.10;99.90;;;;;;4165921;28;20096;-80
2023/08/18 04:05:59;;;;;;;5.75;2.78;;;17.20;99.90;;;;;;4165987;28;20083;-80
2023/08/18 04:08:00;;;;;;;4.95;2.55;;;17.20;99.90;;;;;;4165210;28;20045;-81
2023/08/18 04:10:01;;;;;;;6.78;3.30;;;17.20;99.90;;;;;;4165863;28;20053;-81
2023/08/18 04:12:02;;;;;;;8.30;3.10;;;17.20;99.90;;;;;;4165727;28;20130;-81
2023/08/18 04:14:03;;;;;;;7.43;3.47;;;17.10;99.90;;;;;;4165884;28;20056;-81
2023/08/18 04:16:04;;;;;;;8.43;3.20;;;17.20;99.90;;;;;;4164526;28;20129;-81
2023/08/18 04:18:05;;;;;;;4.85;2.63;;;17.20;99.90;;;;;;4164378;28;20120;-81
2023/08/18 04:20:08;;;;;;;4.30;3.08;;;17.20;99.90;;;;;;4165828;28;20485;-81
2023/08/18 04:22:09;;;;;;;5.05;2.58;;;17.20;99.90;;;;;;4165310;28;20045;-81
2023/08/18 04:24:10;;;;;;;5.75;3.70;;;17.20;99.90;;;;;;4164887;28;20063;-81
2023/08/18 04:26:12;;;;;;;4.57;2.65;;;17.20;99.90;;;;;;4164979;28;20049;-80
2023/08/18 04:28:12;;;;;;;4.97;2.65;;;17.20;99.90;;;;;;4165545;28;20510;-80
2023/08/18 04:30:13;;;;;;;8.45;3.17;;;17.20;99.90;;;;;;4164251;28;20053;-80
2023/08/18 04:32:14;;;;;;;5.10;3.10;;;17.20;99.90;;;;;;4163652;28;20105;-81
2023/08/18 04:34:15;;;;;;;5.90;3.08;;;17.20;99.90;;;;;;4164997;28;20147;-81
2023/08/18 04:36:16;;;;;;;8.20;3.53;;;17.10;99.90;;;;;;4164965;28;20045;-81
2023/08/18 04:38:17;;;;;;;6.85;3.33;;;17.30;99.90;;;;;;4165189;28;20045;-81
2023/08/18 04:40:18;;;;;;;7.43;3.80;;;17.30;99.90;;;;;;4165151;28;20049;-81
2023/08/18 04:42:19;;;;;;;4.93;3.38;;;17.20;99.90;;;;;;4164591;28;20049;-80
2023/08/18 04:44:20;;;;;;;12.45;4.35;;;17.30;99.90;;;;;;4165300;28;20045;-81
2023/08/18 04:46:20;;;;;;;4.82;3.40;;;17.30;99.90;;;;;;4164811;28;20059;-80
2023/08/18 04:48:23;;;;;;;4.63;2.92;;;17.30;99.90;;;;;;4165444;28;20041;-81
2023/08/18 04:50:23;;;;;;;5.97;3.08;;;17.20;99.90;;;;;;4165332;28;20049;-80
2023/08/18 04:52:24;;;;;;;7.13;3.05;;;17.30;99.90;;;;;;4165143;28;20049;-81
2023/08/18 04:54:25;;;;;;;6.43;3.50;;;17.30;99.90;;;;;;4165053;28;20045;-80
2023/08/18 04:56:26;;;;;;;8.18;3.40;;;17.30;99.90;;;;;;4164199;28;20037;-81
2023/08/18 04:58:27;;;;;;;7.03;3.17;;;17.50;99.90;;;;;;4164766;28;20052;-81
2023/08/18 05:00:29;;;;;;;5.88;3.00;;;17.30;99.90;;;;;;4162613;28;20037;-81
2023/08/18 05:02:30;;;;;;;7.95;2.90;;;17.30;99.90;;;;;;4164910;28;20041;-80
2023/08/18 05:04:31;;;;;;;7.00;3.22;;;17.30;99.90;;;;;;4165019;28;20156;-81
2023/08/18 05:06:32;;;;;;;4.80;2.55;;;17.30;99.90;;;;;;4164626;28;20057;-81
2023/08/18 05:08:33;;;;;;;7.95;2.92;;;17.30;99.90;;;;;;4165237;28;20490;-81
2023/08/18 05:10:33;;;;;;;4.00;2.70;;;17.30;99.90;;;;;;4163816;28;20038;-81
2023/08/18 05:12:34;;;;;;;7.97;3.35;;;17.30;99.90;;;;;;4164864;28;20037;-81
2023/08/18 05:14:35;;;;;;;7.82;3.63;;;17.30;99.90;;;;;;4164740;28;20049;-81
2023/08/18 05:16:36;;;;;;;7.05;3.08;;;17.40;99.90;;;;;;4164314;28;20467;-81
2023/08/18 05:18:36;;;;;;;7.53;3.50;;;17.40;99.90;;;;;;4163907;28;20061;-81
2023/08/18 05:20:37;;;;;;;5.18;3.15;;;18.60;99.90;;;;;;4162435;28;20111;-81
2023/08/18 05:22:38;;;;;;;6.50;3.15;;;17.40;99.90;;;;;;4163407;28;20049;-81
2023/08/18 05:24:39;;;;;;;4.88;3.13;;;17.40;99.90;;;;;;4163614;28;20089;-81
2023/08/18 05:26:39;;;;;;;6.55;2.80;;;17.40;99.90;;;;;;4156887;28;20045;-81
2023/08/18 05:28:40;;;;;;;9.38;2.65;;;17.40;99.90;;;;;;4147876;28;20042;-81
2023/08/18 05:30:45;;;;;;;6.72;3.00;;;17.50;99.90;;;;;;4148204;28;20121;-81
2023/08/18 05:32:46;;;;;;;6.82;3.28;;;17.40;99.90;;;;;;4146479;28;20419;-81
2023/08/18 05:34:47;;;;;;;6.40;2.90;;;17.50;99.90;;;;;;4148345;28;20053;-81
2023/08/18 05:36:47;;;;;;;5.47;2.80;;;17.50;99.90;;;;;;4151955;28;20116;-81
2023/08/18 05:38:48;;;;;;;5.82;2.83;;;17.50;99.90;;;;;;4164430;28;20054;-81
2023/08/18 05:40:49;;;;;;;7.78;3.13;;;17.50;99.90;;;;;;4160118;28;20072;-81
2023/08/18 05:42:50;;;;;;;7.10;3.10;;;17.50;99.90;;;;;;4163384;28;20042;-81
2023/08/18 05:44:51;;;;;;;5.47;2.83;;;17.50;99.90;;;;;;4164551;28;20087;-81
2023/08/18 05:46:52;;;;;;;5.15;2.90;;;17.50;99.90;;;;;;4162975;28;20045;-81
2023/08/18 05:48:53;;;;;;;7.45;3.25;;;17.50;99.90;;;;;;4163140;28;20575;-81
2023/08/18 05:50:54;;;;;;;6.28;2.80;;;17.30;99.90;;;;;;4162579;28;20046;-80
2023/08/18 05:52:55;;;;;;;5.95;3.15;;;17.50;99.90;;;;;;4164264;28;20051;-81
2023/08/18 05:54:56;;;;;;;6.13;2.60;;;17.50;99.90;;;;;;4162567;28;20056;-80
2023/08/18 05:56:57;;;;;;;5.93;2.50;;;17.50;99.90;;;;;;4164452;28;20067;-79
2023/08/18 05:58:58;;;;;;;4.78;2.63;;;17.50;99.90;;;;;;4160797;28;20038;-80
2023/08/18 06:00:59;;;;;;;8.30;2.58;;;17.50;99.90;;;;;;4147436;28;20473;-80
2023/08/18 06:03:00;;;;;;;5.85;3.20;;;17.50;99.90;;;;;;4148334;28;20045;-80
2023/08/18 06:05:01;;;;;;;5.25;2.47;;;17.50;99.90;;;;;;4148086;28;20046;-80
2023/08/18 06:07:02;;;;;;;7.88;2.20;;;17.50;99.90;;;;;;4148067;28;20073;-80
2023/08/18 06:09:03;;;;;;;4.30;2.75;;;17.50;99.90;;;;;;4149852;28;20053;-80
2023/08/18 06:11:04;;;;;;;4.22;2.45;;;17.50;99.90;;;;;;4163375;28;20042;-80
2023/08/18 06:13:05;;;;;;;5.13;2.70;;;17.60;99.90;;;;;;4167071;28;20543;-80
2023/08/18 06:15:07;;;;;;;6.32;3.08;;;17.60;99.90;;;;;;4167846;28;20052;-80
2023/08/18 06:17:08;;;;;;;6.20;2.78;;;17.60;99.90;;;;;;4166151;28;20080;-80
2023/08/18 06:19:08;;;;;;;7.05;2.47;;;17.60;99.90;;;;;;4167593;28;20120;-80
2023/08/18 06:21:09;;;;;;;6.10;2.45;;;17.60;99.90;;;;;;4167618;28;20056;-80
2023/08/18 06:23:10;;;;;;;5.05;2.90;;;17.60;99.90;;;;;;4167164;28;20045;-80
2023/08/18 06:25:11;;;;;;;6.30;2.50;;;17.60;99.90;;;;;;4167362;28;20048;-80
2023/08/18 06:27:12;;;;;;;7.75;2.70;;;17.70;99.90;;;;;;4166167;28;20045;-80
2023/08/18 06:29:12;;;;;;;9.65;2.50;;;17.70;99.90;;;;;;4166416;28;20060;-80
2023/08/18 06:31:13;;;;;;;6.70;2.72;;;17.70;99.90;;;;;;4167407;28;20375;-80
2023/08/18 06:33:14;;;;;;;5.00;2.72;;;17.80;99.90;;;;;;4166872;28;20084;-80
2023/08/18 06:35:15;;;;;;;5.63;2.83;;;17.80;99.90;;;;;;4165084;28;20076;-80
2023/08/18 06:37:16;;;;;;;9.98;2.92;;;17.80;99.90;;;;;;4150655;28;20077;-80
2023/08/18 06:39:17;;;;;;;5.85;2.58;;;17.90;99.90;;;;;;4150920;28;20065;-80
2023/08/18 06:41:18;;;;;;;7.15;3.08;;;17.90;99.90;;;;;;4133628;28;20054;-80
2023/08/18 06:43:19;;;;;;;5.53;3.03;;;17.90;99.90;;;;;;4150312;28;20050;-80
2023/08/18 06:45:19;;;;;;;6.25;2.95;;;17.90;99.90;;;;;;4159374;28;20409;-80
2023/08/18 06:47:20;;;;;;;5.32;2.80;;;17.90;99.90;;;;;;4165920;28;20041;-81
2023/08/18 06:49:21;;;;;;;7.03;3.40;;;18.00;99.90;;;;;;4167111;28;20489;-81
2023/08/18 06:51:22;;;;;;;10.13;3.35;;;17.90;99.90;;;;;;4153452;28;20046;-80
2023/08/18 06:53:23;;;;;;;7.97;3.85;;;18.00;99.90;;;;;;4155681;28;20034;-81
2023/08/18 06:55:24;;;;;;;8.02;4.00;;;18.00;99.90;;;;;;4159263;28;20442;-80
2023/08/18 06:57:25;;;;;;;9.10;4.03;;;18.00;99.90;;;;;;4153231;28;20038;-80
2023/08/18 06:59:26;;;;;;;12.18;4.57;;;18.00;99.90;;;;;;4163249;28;20095;-80
2023/08/18 07:01:27;;;;;;;9.13;4.13;;;18.10;99.90;;;;;;4162598;28;20493;-81
2023/08/18 07:03:28;;;;;;;10.60;3.97;;;18.10;99.90;;;;;;4154573;28;20076;-80
2023/08/18 07:05:29;;;;;;;8.43;4.68;;;18.10;99.90;;;;;;4152979;28;20052;-81
2023/08/18 07:07:30;;;;;;;7.03;4.25;;;18.00;99.90;;;;;;4151978;28;20037;-81
2023/08/18 07:09:30;;;;;;;8.25;4.20;;;18.10;99.90;;;;;;4165545;28;20391;-80
2023/08/18 07:11:31;;;;;;;8.23;4.00;;;18.10;99.90;;;;;;4157887;28;20392;-81
2023/08/18 07:13:32;;;;;;;9.77;4.30;;;18.20;99.90;;;;;;4158775;28;20073;-80
2023/08/18 07:15:33;;;;;;;6.28;4.22;;;18.20;99.90;;;;;;4157907;28;20486;-80
2023/08/18 07:17:34;;;;;;;18.33;5.03;;;18.20;99.90;;;;;;4158802;28;20045;-80
2023/08/18 07:19:34;;;;;;;11.30;4.10;;;18.20;99.90;;;;;;4156608;28;20042;-81
2023/08/18 07:21:35;;;;;;;8.48;3.55;;;18.20;99.90;;;;;;4155849;28;20179;-81
2023/08/18 07:23:36;;;;;;;8.93;3.80;;;18.30;99.90;;;;;;4159210;28;20041;-80
2023/08/18 07:25:39;;;;;;;14.45;4.57;;;18.30;99.90;;;;;;4157112;28;20414;-81
2023/08/18 07:27:39;;;;;;;10.38;3.95;;;18.30;99.90;;;;;;4159595;28;20121;-80
2023/08/18 07:29:40;;;;;;;9.45;4.28;;;18.30;99.90;;;;;;4155940;28;20057;-81
2023/08/18 07:31:42;;;;;;;7.90;3.40;;;18.30;99.90;;;;;;4159696;28;20478;-81
2023/08/18 07:33:44;;;;;;;10.30;3.63;;;18.30;99.90;;;;;;4158121;28;20384;-81
2023/08/18 07:35:46;;;;;;;5.25;2.83;;;18.30;99.90;;;;;;4159249;28;20461;-81
2023/08/18 07:37:47;;;;;;;11.50;4.85;;;18.30;99.90;;;;;;4175597;28;20045;-81
2023/08/18 07:39:47;;;;;;;6.68;3.70;;;18.40;99.90;;;;;;4154081;28;20084;-81
2023/08/18 07:41:48;;;;;;;9.50;3.38;;;18.40;99.90;;;;;;4160408;28;20489;-80
2023/08/18 07:43:49;;;;;;;7.25;4.20;;;18.40;99.90;;;;;;4154696;28;20180;-80
2023/08/18 07:45:50;;;;;;;10.68;4.40;;;18.40;99.90;;;;;;4160713;28;20046;-80
2023/08/18 07:47:51;;;;;;;10.00;4.10;;;18.40;99.90;;;;;;4155364;28;20121;-80
2023/08/18 07:49:52;;;;;;;6.78;3.95;;;18.40;99.90;;;;;;4161193;28;20483;-81
2023/08/18 07:51:53;;;;;;;8.75;3.70;;;18.40;99.90;;;;;;4153973;28;20057;-81
2023/08/18 07:53:54;;;;;;;9.15;4.10;;;18.40;99.90;;;;;;4160824;28;20509;-80
2023/08/18 07:55:55;;;;;;;9.13;4.60;;;18.50;99.90;;;;;;4153829;28;20131;-80
2023/08/18 07:57:56;;;;;;;9.68;4.00;;;18.50;99.90;;;;;;4162464;28;20473;-80
2023/08/18 07:59:57;;;;;;;9.05;4.38;;;18.50;99.90;;;;;;4164559;28;20056;-80
2023/08/18 08:01:58;;;;;;;10.93;4.18;;;18.60;99.90;;;;;;4166256;28;20053;-80
2023/08/18 08:03:59;;;;;;;9.80;4.43;;;18.50;99.90;;;;;;4162337;28;20052;-81
2023/08/18 08:06:00;;;;;;;12.63;4.70;;;18.50;99.90;;;;;;4155153;28;20052;-80
2023/08/18 08:08:00;;;;;;;9.32;3.92;;;18.50;99.90;;;;;;4162236;28;20120;-80
2023/08/18 08:10:05;;;;;;;11.55;4.57;;;18.50;99.90;;;;;;4153314;28;20121;-81
2023/08/18 08:12:06;;;;;;;8.93;4.05;;;18.50;99.90;;;;;;4163752;28;20129;-80
2023/08/18 08:14:07;;;;;;;12.07;3.97;;;18.60;99.90;;;;;;4165048;28;20037;-81
2023/08/18 08:16:08;;;;;;;11.23;5.25;;;18.60;99.90;;;;;;4157497;28;20049;-80
2023/08/18 08:18:09;;;;;;;12.75;4.95;;;18.70;99.90;;;;;;4159566;28;20410;-80
2023/08/18 08:20:19;;;;;;;9.95;3.85;;;18.70;99.90;;;;;;4169833;28;20042;-81
2023/08/18 08:22:19;;;;;;;8.10;3.65;;;18.80;99.90;;;;;;4154644;28;20099;-81
2023/08/18 08:24:20;;;;;;;9.48;4.55;;;18.80;99.90;;;;;;4156011;28;20045;-81
2023/08/18 08:26:21;;;;;;;11.90;3.97;;;18.90;99.90;;;;;;4158533;28;20094;-80
2023/08/18 08:28:22;;;;;;;6.55;3.53;;;19.00;99.90;;;;;;4149068;28;20100;-80
2023/08/18 08:30:22;;;;;;;7.53;4.63;;;19.10;99.90;;;;;;4149102;28;20113;-80
2023/08/18 08:32:23;;;;;;;13.48;4.57;;;19.20;99.90;;;;;;4151660;28;20053;-80
2023/08/18 08:34:24;;;;;;;14.57;4.45;;;19.30;99.90;;;;;;4163788;28;20517;-81
2023/08/18 08:36:28;;;;;;;8.80;3.53;;;19.40;99.90;;;;;;4165535;28;20481;-80
2023/08/18 08:38:28;;;;;;;9.80;3.70;;;19.40;99.90;;;;;;4164709;28;20057;-80
2023/08/18 08:40:29;;;;;;;12.43;3.35;;;19.50;99.90;;;;;;4163518;28;20498;-80
2023/08/18 08:42:30;;;;;;;8.50;3.55;;;19.50;99.90;;;;;;4155503;28;20080;-80
2023/08/18 08:44:31;;;;;;;9.40;3.50;;;19.60;99.90;;;;;;4152920;28;20047;-80
2023/08/18 08:46:33;;;;;;;7.88;3.60;;;19.70;99.90;;;;;;4165766;28;20095;-80
2023/08/18 08:48:44;;;;;;;7.65;2.97;;;19.90;99.90;;;;;;4158222;28;20041;-80
2023/08/18 08:50:48;;;;;;;9.18;2.97;;;19.80;99.90;;;;;;4160105;28;20100;-80
2023/08/18 08:52:56;;;;;;;7.00;3.00;;;19.80;99.90;;;;;;4246850;27;1285671;-79
2023/08/18 08:55:02;;;;;;;8.35;2.55;;;19.80;99.90;;;;;;4236916;28;20062;-80
2023/08/18 08:57:05;;;;;;;7.07;2.85;;;19.80;99.90;;;;;;4234689;28;20040;-80
2023/08/18 08:59:06;;;;;;;7.75;2.42;;;19.90;99.90;;;;;;4250032;27;20564;-80
2023/08/18 09:01:07;;;;;;;10.13;3.15;;;20.00;99.90;;;;;;4231360;28;20078;-80
2023/08/18 09:03:09;;;;;;;13.15;4.53;;;20.10;99.90;;;;;;4247627;27;20063;-80
2023/08/18 09:05:10;;;;;;;8.60;3.33;;;20.10;99.90;;;;;;4272619;27;20537;-81
2023/08/18 09:07:12;;;;;;;6.53;2.47;;;20.10;99.90;;;;;;4252646;27;20050;-80
2023/08/18 09:09:14;;;;;;;9.40;2.60;;;20.10;99.90;;;;;;4238199;28;20043;-80
2023/08/18 09:11:15;;;;;;;5.20;2.55;;;20.10;99.90;;;;;;4251674;27;20035;-81
2023/08/18 09:13:15;;;;;;;8.27;3.00;;;20.20;99.90;;;;;;4226694;28;20048;-80
2023/08/18 09:15:16;;;;;;;8.35;2.95;;;20.20;99.90;;;;;;4227051;28;20127;-80
2023/08/18 09:17:18;;;;;;;5.72;3.00;;;20.30;99.90;;;;;;4232453;28;20047;-81
2023/08/18 09:19:19;;;;;;;9.40;3.10;;;20.30;99.90;;;;;;4243925;28;20051;-82
2023/08/18 09:21:23;;;;;;;6.28;3.22;;;20.30;99.90;;;;;;4244077;28;20070;-81
2023/08/18 09:23:27;;;;;;;10.35;3.20;;;20.40;99.90;;;;;;4227239;28;20495;-81
2023/08/18 09:25:33;;;;;;;7.32;2.90;;;20.40;99.90;;;;;;4227279;28;20411;-81
2023/08/18 09:27:33;;;;;;;6.97;3.00;;;20.40;99.90;;;;;;4234900;28;20047;-81
2023/08/18 09:29:36;;;;;;;7.30;2.72;;;20.40;99.90;;;;;;4262148;27;20498;-81
2023/08/18 09:31:36;;;;;;;6.03;3.10;;;20.40;99.90;;;;;;4239570;28;20035;-82
2023/08/18 09:33:38;;;;;;;10.98;3.38;;;20.50;99.90;;;;;;4227148;28;20040;-82
2023/08/18 09:35:38;;;;;;;6.60;3.60;;;20.50;99.90;;;;;;4227459;28;20048;-82
2023/08/18 09:37:39;;;;;;;6.72;2.72;;;20.50;99.90;;;;;;4244931;27;20825;-83
2023/08/18 09:39:41;;;;;;;5.78;3.00;;;20.60;99.90;;;;;;4248981;27;20048;-83
2023/08/18 09:41:46;;;;;;;5.03;3.13;;;20.50;99.90;;;;;;4227062;28;20047;-83
2023/08/18 09:43:48;;;;;;;5.22;2.40;;;20.60;99.90;;;;;;4232939;27;20051;-82
2023/08/18 09:45:50;;;;;;;6.32;2.75;;;20.60;99.90;;;;;;4253929;27;20510;-82
2023/08/18 09:47:54;;;;;;;5.32;2.47;;;20.70;99.90;;;;;;4243751;28;20442;-82
2023/08/18 09:49:57;;;;;;;5.90;2.80;;;20.80;99.90;;;;;;4253907;27;20083;-82
2023/08/18 09:52:06;;;;;;;7.93;3.22;;;20.90;99.90;;;;;;4261400;27;20455;-82
2023/08/18 09:54:11;;;;;;;6.50;2.80;;;21.00;99.90;;;;;;4264387;27;20058;-83
2023/08/18 09:56:13;;;;;;;7.68;3.00;;;21.10;99.90;;;;;;4269851;27;20064;-81
2023/08/18 09:58:33;;;;;;;5.63;3.50;;;21.20;99.90;;;;;;4261842;27;20043;-81
2023/08/18 10:00:36;;;;;;;7.78;3.63;;;21.30;99.90;;;;;;4242736;28;20128;-81
2023/08/18 10:02:42;;;;;;;8.18;3.72;;;21.30;99.90;;;;;;4264391;27;20066;-81
2023/08/18 10:04:44;;;;;;;8.27;3.35;;;21.40;99.90;;;;;;4250181;27;20050;-82
2023/08/18 10:06:46;;;;;;;8.05;3.15;;;21.40;99.90;;;;;;4232160;28;20380;-82
2023/08/18 10:08:47;;;;;;;9.60;3.30;;;21.50;99.90;;;;;;4250414;27;20110;-81
2023/08/18 10:10:50;;;;;;;6.35;3.22;;;21.40;99.90;;;;;;4249292;27;20135;-81
2023/08/18 10:12:51;;;;;;;6.57;3.13;;;21.40;99.90;;;;;;4226180;28;20071;-78
2023/08/18 10:14:53;;;;;;;8.50;3.92;;;21.40;99.90;;;;;;4211107;28;20090;-82
2023/08/18 10:16:55;;;;;;;6.68;3.58;;;21.40;99.90;;;;;;4248289;27;20051;-81
2023/08/18 10:18:57;;;;;;;6.85;3.42;;;21.50;99.90;;;;;;4228347;28;20127;-81
2023/08/18 10:20:59;;;;;;;8.57;4.07;;;21.50;99.90;;;;;;4232091;28;20498;-81
2023/08/18 10:23:02;;;;;;;8.23;3.92;;;21.60;99.90;;;;;;4250009;27;20639;-82
2023/08/18 10:25:09;;;;;;;7.10;3.92;;;21.80;99.90;;;;;;4249909;27;20050;-81
2023/08/18 10:27:12;;;;;;;9.20;4.05;;;22.00;99.90;;;;;;4234713;27;20102;-80
2023/08/18 10:29:14;;;;;;;7.03;4.22;;;22.10;99.90;;;;;;4226896;28;20055;-80
2023/08/18 10:31:16;;;;;;;6.60;4.28;;;22.20;99.90;;;;;;4254239;27;20051;-79
2023/08/18 10:33:27;;;;;;;6.75;3.70;;;22.30;99.90;;;;;;4256528;27;20115;-79